Latest Weather Observations for Ferny Creek

IDV60801

Issued at 10:02 pm EST Sunday 3 July 2022 (issued every 10 minutes, with the page automatically refreshed every 10 minutes)

About weather observations | Map of weather stations | Latest weather observations for VIC | Other Formats
Station Details ID: 086266 Name: FERNY CREEK Lat: -37.87 Lon: 145.35 Height: 512.9 m
Data from the previous 72 hours. | See also: Recent months at Ferny Creek
Date/Time
EST
Temp
°C
App
Temp
°C
Dew
Point
°C
Rel
Hum
%
Delta-T
°C
Wind Press
QNH
hPa
Press
MSL
hPa
Rain since
9am
mm
Dir  Spd
km/h
Gust
km/h
Spd
kts
Gust
kts
03/10:00pm 4.9 0.9 3.1 88 0.8 ESE 13 22 7 12 1026.0 1026.9 0.0
03/09:30pm 5.0 1.0 2.9 86 0.9 ESE 13 20 7 11 1026.1 1027.0 0.0
03/09:00pm 5.0 1.4 2.9 86 0.9 ESE 11 24 6 13 1026.0 1026.9 0.0
03/08:30pm 5.2 1.6 3.1 86 0.9 ESE 11 20 6 11 1026.1 1027.0 0.0
03/08:00pm 5.2 1.3 3.2 87 0.8 ESE 13 24 7 13 1026.2 1027.1 0.0
03/07:30pm 5.3 1.4 3.3 87 0.9 ESE 13 20 7 11 1026.1 1027.0 0.0
03/07:00pm 5.5 2.0 3.3 86 0.9 ESE 11 20 6 11 1026.0 1026.9 0.0
03/06:30pm 5.7 1.8 3.2 84 1.1 ESE 13 26 7 14 1025.9 1026.8 0.0
03/06:00pm 6.0 2.1 3.2 82 1.2 ESE 13 19 7 10 1025.8 1026.7 0.0
03/05:30pm 6.3 2.4 3.5 82 1.2 ESE 13 26 7 14 1025.7 1026.6 0.0
03/05:00pm 6.5 3.0 3.3 80 1.4 ESE 11 20 6 11 1025.6 1026.5 0.0
03/04:30pm 6.7 2.4 3.3 79 1.5 ESE 15 26 8 14 1025.5 1026.4 0.0
03/04:00pm 7.1 2.8 3.5 78 1.6 ESE 15 30 8 16 1025.5 1026.4 0.0
03/03:30pm 7.3 4.0 4.6 83 1.2 ESE 11 17 6 9 1025.5 1026.4 0.0
03/03:00pm 7.3 4.0 4.3 81 1.3 ESE 11 20 6 11 1025.4 1026.3 0.0
03/02:30pm 7.7 4.0 4.3 79 1.5 ESE 13 24 7 13 1025.4 1026.3 0.0
03/02:00pm 7.7 3.9 3.7 76 1.8 ESE 13 22 7 12 1025.6 1026.5 0.0
03/01:30pm 8.1 5.1 4.3 77 1.7 ESE 9 19 5 10 1025.8 1026.7 0.0
03/01:00pm 7.6 3.8 4.0 78 1.6 ESE 13 32 7 17 1026.1 1027.0 0.0
03/12:30pm 7.3 3.2 4.1 80 1.4 ESE 15 26 8 14 1026.4 1027.3 0.0
03/12:00pm 7.2 3.0 4.0 80 1.4 ESE 15 28 8 15 1026.7 1027.7 0.0
03/11:30am 7.4 2.3 4.0 79 1.5 ESE 20 35 11 19 1026.9 1027.9 0.0
03/11:00am 7.0 2.4 3.8 80 1.4 ESE 17 32 9 17 1027.4 1028.3 0.0
03/10:30am 6.3 1.5 2.8 78 1.5 ESE 17 30 9 16 1027.4 1028.3 0.0
03/10:00am 6.0 1.2 2.6 79 1.4 ESE 17 32 9 17 1027.3 1028.2 0.0
03/09:30am 5.9 1.1 2.7 80 1.4 ESE 17 32 9 17 1027.3 1028.2 0.0
03/09:00am 5.4 0.6 2.4 81 1.2 ESE 17 30 9 16 1027.3 1028.2 0.0
03/08:30am 5.2 0.4 2.4 82 1.2 ESE 17 26 9 14 1027.2 1028.1 0.0
03/08:00am 4.6 -0.3 2.1 84 1.0 ESE 17 30 9 16 1026.9 1027.9 0.0
03/07:30am 4.4 -0.1 2.1 85 0.9 ESE 15 28 8 15 1026.8 1027.8 0.0
03/07:00am 4.7 -0.1 2.6 86 0.9 ESE 17 32 9 17 1026.7 1027.7 0.0
03/06:30am 4.4 -0.5 2.3 86 0.9 ESE 17 33 9 18 1026.5 1027.5 0.0
03/06:00am 4.5 -0.7 2.2 85 0.9 ESE 19 30 10 16 1026.3 1027.2 0.0
03/05:30am 4.7 -0.2 2.2 84 1.0 ESE 17 26 9 14 1026.3 1027.2 0.0
03/05:00am 4.7 -0.1 2.4 85 1.0 ESE 17 28 9 15 1026.3 1027.2 0.0
03/04:30am 4.7 0.3 2.7 87 0.8 ESE 15 24 8 13 1026.3 1027.2 0.0
03/04:00am 4.8 0.1 3.3 90 0.6 ESE 17 26 9 14 1026.5 1027.5 0.0
03/03:30am 4.7 0.7 2.9 88 0.8 ESE 13 24 7 13 1026.7 1027.7 0.0
03/03:00am 4.8 0.5 3.3 90 0.6 ESE 15 24 8 13 1026.9 1027.9 0.0
03/02:30am 4.9 0.6 3.4 90 0.6 ESE 15 26 8 14 1027.2 1028.1 0.0
03/02:00am 4.8 1.1 4.7 99 0.0 ESE 13 22 7 12 1027.2 1028.1 0.0
03/01:30am 4.9 0.9 4.9 100 0.0 ESE 15 22 8 12 1027.3 1028.2 0.0
03/01:00am 5.0 1.4 5.0 100 0.0 ESE 13 20 7 11 1027.4 1028.3 0.0
03/12:30am 4.6 0.5 4.6 100 0.0 ESE 15 26 8 14 1027.5 1028.4 0.0
03/12:00am 5.0 1.0 5.0 100 0.0 ESE 15 24 8 13 1027.7 1028.6 0.0
 
Date/Time
EST
Temp
°C
App
Temp
°C
Dew
Point
°C
Rel
Hum
%
Delta-T
°C
Wind Press
QNH
hPa
Press
MSL
hPa
Rain since
9am
mm
Dir  Spd
km/h
Gust
km/h
Spd
kts
Gust
kts
02/11:30pm 5.1 1.5 5.1 100 0.0 ESE 13 20 7 11 1027.9 1028.8 0.0
02/11:00pm 5.2 1.6 5.2 100 0.0 SE 13 24 7 13 1028.0 1028.9 0.0
02/10:30pm 5.1 1.5 5.1 100 0.0 ESE 13 28 7 15 1027.9 1028.8 0.0
02/10:00pm 5.0 1.8 4.9 99 0.0 ESE 11 24 6 13 1027.8 1028.7 0.0
02/09:30pm 5.2 2.4 5.2 100 0.0 SE 9 17 5 9 1027.9 1028.8 0.0
02/09:00pm 5.4 2.7 5.4 100 0.0 ESE 9 19 5 10 1028.1 1029.1 0.0
02/08:30pm 5.7 3.0 5.7 100 0.0 ESE 9 19 5 10 1028.1 1029.1 0.0
02/08:00pm 5.8 2.8 5.8 100 0.0 SE 11 22 6 12 1028.2 1029.2 0.0
02/07:30pm 6.0 3.4 6.0 100 0.0 ESE 9 17 5 9 1028.0 1028.9 0.0
02/07:00pm 6.1 3.1 6.1 100 0.0 SE 11 19 6 10 1028.1 1029.1 0.0
02/06:30pm 6.1 3.5 6.1 100 0.0 ESE 9 17 5 9 1028.0 1028.9 0.0
02/06:00pm 6.2 3.2 6.2 100 0.0 ESE 11 19 6 10 1027.9 1028.8 0.0
02/05:30pm 6.3 3.7 6.0 98 0.1 SE 9 20 5 11 1027.8 1028.7 0.0
02/05:00pm 6.6 4.2 5.4 92 0.5 ESE 7 17 4 9 1027.8 1028.7 0.0
02/04:30pm 7.1 5.0 5.6 90 0.7 SE 6 11 3 6 1027.8 1028.7 0.0
02/04:00pm 7.3 5.1 5.4 88 0.9 ESE 6 13 3 7 1027.6 1028.5 0.0
02/03:30pm 7.5 5.1 5.3 86 1.0 ESE 7 11 4 6 1027.6 1028.5 0.0
02/03:00pm 7.8 5.4 5.3 84 1.1 ESE 7 11 4 6 1027.6 1028.5 0.0
02/02:30pm 7.6 5.1 4.6 81 1.4 SE 7 17 4 9 1027.7 1028.6 0.0
02/02:00pm 7.9 4.8 3.8 75 1.8 ESE 9 19 5 10 1027.9 1028.8 0.0
02/01:30pm 8.4 6.2 6.0 85 1.1 ESE 7 15 4 8 1028.0 1028.9 0.0
02/01:00pm 8.3 5.6 5.6 83 1.2 ESE 9 19 5 10 1028.4 1029.4 0.0
02/12:30pm 7.5 4.7 5.1 85 1.1 ESE 9 17 5 9 1028.8 1029.8 0.0
02/12:00pm 7.4 4.7 5.4 87 0.9 SE 9 22 5 12 1029.1 1030.1 0.0
02/11:30am 7.9 5.6 5.7 86 1.0 ESE 7 15 4 8 1029.4 1030.3 0.0
02/11:00am 8.1 5.8 5.7 85 1.1 ESE 7 13 4 7 1029.6 1030.5 0.0
02/10:30am 8.1 5.4 5.6 84 1.2 SE 9 17 5 9 1029.8 1030.8 0.0
02/10:00am 8.4 6.0 7.2 92 0.6 ESE 9 17 5 9 1029.6 1030.5 0.0
02/09:30am 6.6 4.1 6.6 100 0.0 ESE 9 17 5 9 1029.3 1030.2 0.0
02/09:00am 6.2 3.6 6.2 100 0.0 ESE 9 19 5 10 1029.3 1030.2 0.2
02/08:30am 5.9 3.3 5.9 100 0.0 ESE 9 19 5 10 1029.3 1030.2 0.2
02/08:00am 5.3 2.5 5.3 100 0.0 ESE 9 20 5 11 1029.1 1030.1 0.2
02/07:30am 5.2 2.0 5.2 100 0.0 ESE 11 20 6 11 1029.0 1030.0 0.2
02/07:00am 5.4 3.0 5.4 100 0.0 ESE 7 17 4 9 1028.9 1029.9 0.2
02/06:30am 5.6 2.5 5.6 100 0.0 ESE 11 19 6 10 1028.8 1029.8 0.2
02/06:00am 5.6 2.9 5.6 100 0.0 ESE 9 19 5 10 1028.6 1029.6 0.2
02/05:30am 5.5 3.2 5.5 100 0.0 ESE 7 13 4 7 1028.5 1029.5 0.2
02/05:00am 5.7 3.6 5.7 100 0.0 ESE 6 11 3 6 1028.6 1029.6 0.2
02/04:30am 5.8 3.7 5.8 100 0.0 ESE 6 17 3 9 1028.6 1029.6 0.2
02/04:00am 5.7 3.4 5.7 100 0.0 SE 7 15 4 8 1028.8 1029.8 0.2
02/03:30am 5.7 3.4 5.7 100 0.0 SE 7 15 4 8 1028.8 1029.8 0.2
02/03:00am 5.8 3.5 5.8 100 0.0 SSE 7 15 4 8 1028.9 1029.9 0.2
02/02:30am 5.8 3.7 5.8 100 0.0 SSE 6 9 3 5 1029.1 1030.1 0.0
02/02:00am 5.9 3.8 5.9 100 0.0 SSE 6 15 3 8 1029.1 1030.1 0.0
02/01:30am 5.9 3.8 5.9 100 0.0 ESE 6 13 3 7 1029.3 1030.2 0.0
02/01:00am 6.0 3.8 6.0 100 0.0 ESE 7 11 4 6 1029.4 1030.3 0.0
02/12:30am 6.0 4.3 6.0 100 0.0 SE 4 13 2 7 1029.7 1030.6 0.0
02/12:00am 6.0 3.9 6.0 100 0.0 ESE 6 19 3 10 1029.7 1030.6 0.0
 
Date/Time
EST
Temp
°C
App
Temp
°C
Dew
Point
°C
Rel
Hum
%
Delta-T
°C
Wind Press
QNH
hPa
Press
MSL
hPa
Rain since
9am
mm
Dir  Spd
km/h
Gust
km/h
Spd
kts
Gust
kts
01/11:30pm 5.8 3.1 5.8 100 0.0 SE 9 20 5 11 1029.8 1030.8 0.0
01/11:00pm 6.0 3.9 6.0 100 0.0 SE 6 17 3 9 1029.9 1030.9 0.0
01/10:30pm 6.1 3.9 6.1 100 0.0 SE 7 15 4 8 1030.0 1031.0 0.0
01/10:00pm 6.1 4.1 6.1 100 0.0 SSE 6 13 3 7 1030.1 1031.1 0.0
01/09:30pm 6.0 3.9 6.0 100 0.0 SE 6 11 3 6 1030.0 1031.0 0.0
01/09:00pm 6.1 4.1 6.1 100 0.0 SE 6 13 3 7 1030.1 1031.1 0.0
01/08:30pm 6.2 4.0 6.2 100 0.0 SSE 7 17 4 9 1030.0 1031.0 0.0
01/08:00pm 6.5 4.4 6.5 100 0.0 SE 7 19 4 10 1030.1 1031.1 0.0
01/07:30pm 6.9 5.0 6.9 100 0.0 SSE 6 9 3 5 1029.9 1030.9 0.0
01/07:00pm 7.0 5.2 7.0 100 0.0 SE 6 13 3 7 1029.7 1030.6 0.0
01/06:30pm 7.1 5.7 7.1 100 0.0 E 4 9 2 5 1029.5 1030.4 0.0
01/06:00pm 7.1 5.7 7.1 100 0.0 SSW 4 9 2 5 1029.3 1030.2 0.0
01/05:30pm 7.2 5.8 7.2 100 0.0 SSE 4 13 2 7 1028.9 1029.9 0.0
01/05:00pm 7.5 5.8 7.5 100 0.0 SE 6 13 3 7 1028.7 1029.7 0.0
01/04:30pm 7.7 6.4 7.6 99 0.0 S 4 11 2 6 1028.7 1029.7 0.0
01/04:00pm 8.0 6.3 7.4 96 0.3 SE 6 13 3 7 1028.5 1029.5 0.0
01/03:30pm 8.7 7.5 7.9 95 0.4 SSE 4 7 2 4 1028.5 1029.5 0.0
01/03:00pm 8.5 7.1 7.4 93 0.5 E 4 7 2 4 1028.5 1029.5 0.0
01/02:30pm 8.9 7.6 7.7 92 0.6 S 4 6 2 3 1028.6 1029.6 0.0
01/02:00pm 8.9 7.7 8.0 94 0.4 SSE 4 7 2 4 1028.7 1029.7 0.0
01/01:30pm 8.6 6.9 7.4 92 0.6 ESE 6 9 3 5 1029.0 1030.0 0.0
01/01:00pm 8.8 7.6 7.9 94 0.4 ESE 4 6 2 3 1029.1 1030.1 0.0
01/12:30pm 8.5 6.8 7.7 95 0.4 ESE 6 9 3 5 1029.4 1030.3 0.0
01/12:00pm 8.1 6.8 7.7 97 0.2 SE 4 9 2 5 1029.5 1030.4 0.0
01/11:30am 8.1 6.8 7.8 98 0.1 ESE 4 7 2 4 1029.7 1030.6 0.0
01/11:00am 8.0 6.4 8.0 100 0.0 ESE 6 9 3 5 1029.9 1030.9 0.0
01/10:30am 7.8 6.2 7.8 100 0.0 ESE 6 13 3 7 1029.9 1030.9 0.0
01/10:00am 7.2 5.4 7.2 100 0.0 SSE 6 9 3 5 1029.8 1030.8 0.0
01/09:30am 7.1 5.3 7.1 100 0.0 ESE 6 9 3 5 1029.6 1030.3 0.0
01/09:00am 6.9 5.0 6.9 100 0.0 ESE 6 9 3 5 1029.5 1030.2 0.0
01/08:30am 6.8 5.3 6.8 100 0.0 E 4 7 2 4 1029.1 1029.9 0.0
01/08:00am 6.8 5.3 6.8 100 0.0 S 4 9 2 5 1028.9 1029.7 0.0
01/07:30am 6.8 5.7 6.8 100 0.0 SSE 2 7 1 4 1028.7 1029.5 0.0
01/07:00am 6.7 5.2 6.7 100 0.0 S 4 9 2 5 1028.6 1029.4 0.0
01/06:30am 6.6 5.1 6.6 100 0.0 SE 4 9 2 5 1028.4 1029.2 0.0
01/06:00am 6.8 4.9 6.8 100 0.0 S 6 13 3 7 1028.2 1029.0 0.0
01/05:30am 6.8 4.9 6.8 100 0.0 ESE 6 9 3 5 1027.9 1028.6 0.0
01/05:00am 6.7 5.2 6.7 100 0.0 SE 4 9 2 5 1027.7 1028.4 0.0
01/04:30am 6.7 4.8 6.7 100 0.0 SSE 6 11 3 6 1027.6 1028.3 0.0
01/04:00am 6.7 5.2 6.7 100 0.0 S 4 11 2 6 1027.5 1028.2 0.0
01/03:30am 6.5 5.3 6.5 100 0.0 S 2 6 1 3 1027.4 1028.1 0.0
01/03:00am 6.5 5.7 6.5 100 0.0 CALM 0 0 0 0 1027.6 1028.3 0.0
01/02:30am 6.5 5.3 6.5 100 0.0 S 2 4 1 2 1027.7 1028.4 0.0
01/02:00am 6.1 5.2 6.1 100 0.0 CALM 0 4 0 2 1027.6 1028.3 0.0
01/01:30am 5.9 4.6 5.9 100 0.0 S 2 6 1 3 1027.5 1028.2 0.0
01/01:00am 5.0 3.4 4.4 96 0.3 S 2 6 1 3 1027.5 1028.2 0.0
01/12:30am 5.1 3.8 4.1 93 0.4 CALM 0 4 0 2 1027.6 1028.3 0.0
01/12:00am 5.1 3.6 3.1 87 0.8 CALM 0 0 0 0 1027.6 1028.3 0.0
 
Date/Time
EST
Temp
°C
App
Temp
°C
Dew
Point
°C
Rel
Hum
%
Delta-T
°C
Wind Press
QNH
hPa
Press
MSL
hPa
Rain since
9am
mm
Dir  Spd
km/h
Gust
km/h
Spd
kts
Gust
kts
30/11:30pm 5.6 3.8 3.3 85 1.0 S 2 4 1 2 1027.5 1028.2 0.0
30/11:00pm 5.5 3.7 3.7 88 0.8 S 2 6 1 3 1027.3 1028.0 0.0
30/10:30pm 5.4 4.1 3.9 90 0.7 CALM 0 2 0 1 1027.3 1028.0 0.0

Other formats

Comma delimited format used in spreadsheet applications
http://www.bom.gov.au/fwo/IDV60801/IDV60801.94872.axf

JavaScript Object Notation format (JSON) in row-major order
http://www.bom.gov.au/fwo/IDV60801/IDV60801.94872.json

Data quality

Most of these data are generated automatically and are frequently updated. Quality checks on data are not normally performed. It is possible for incorrect values to appear. Refer to information at About Latest Weather Observations and please check the disclaimer before using these data.